sensor_id;sensor_type;location;lat;lon;timestamp;P1;durP1;ratioP1;P2;durP2;ratioP2
3447;SDS011;1738;49.500;17.736;2023-01-06T00:01:01;4.97;;;2.50;;
3447;SDS011;1738;49.500;17.736;2023-01-06T00:03:26;6.00;;;2.80;;
3447;SDS011;1738;49.500;17.736;2023-01-06T00:05:55;5.30;;;2.43;;
3447;SDS011;1738;49.500;17.736;2023-01-06T00:08:18;3.07;;;1.73;;
3447;SDS011;1738;49.500;17.736;2023-01-06T00:10:43;4.70;;;2.40;;
3447;SDS011;1738;49.500;17.736;2023-01-06T00:13:09;3.70;;;2.10;;
3447;SDS011;1738;49.500;17.736;2023-01-06T00:15:36;5.60;;;3.43;;
3447;SDS011;1738;49.500;17.736;2023-01-06T00:18:01;4.70;;;2.70;;
3447;SDS011;1738;49.500;17.736;2023-01-06T00:20:27;5.80;;;2.90;;
3447;SDS011;1738;49.500;17.736;2023-01-06T00:22:53;6.03;;;2.95;;
3447;SDS011;1738;49.500;17.736;2023-01-06T00:25:18;3.87;;;1.90;;
3447;SDS011;1738;49.500;17.736;2023-01-06T00:27:44;4.37;;;2.63;;
3447;SDS011;1738;49.500;17.736;2023-01-06T00:30:10;6.18;;;2.80;;
3447;SDS011;1738;49.500;17.736;2023-01-06T00:32:36;3.17;;;2.17;;
3447;SDS011;1738;49.500;17.736;2023-01-06T00:35:02;7.33;;;2.77;;
3447;SDS011;1738;49.500;17.736;2023-01-06T00:37:28;6.63;;;2.83;;
3447;SDS011;1738;49.500;17.736;2023-01-06T00:39:54;6.32;;;2.40;;
3447;SDS011;1738;49.500;17.736;2023-01-06T00:42:20;7.67;;;4.30;;
3447;SDS011;1738;49.500;17.736;2023-01-06T00:44:46;5.73;;;2.90;;
3447;SDS011;1738;49.500;17.736;2023-01-06T00:47:12;4.53;;;2.30;;
3447;SDS011;1738;49.500;17.736;2023-01-06T00:49:38;9.30;;;2.10;;
3447;SDS011;1738;49.500;17.736;2023-01-06T00:52:03;8.63;;;3.30;;
3447;SDS011;1738;49.500;17.736;2023-01-06T00:54:29;8.38;;;3.22;;
3447;SDS011;1738;49.500;17.736;2023-01-06T00:56:55;5.60;;;2.13;;
3447;SDS011;1738;49.500;17.736;2023-01-06T00:59:22;5.20;;;2.50;;
3447;SDS011;1738;49.500;17.736;2023-01-06T01:01:48;3.80;;;2.50;;
3447;SDS011;1738;49.500;17.736;2023-01-06T01:04:13;8.13;;;2.50;;
3447;SDS011;1738;49.500;17.736;2023-01-06T01:06:39;6.20;;;3.27;;
3447;SDS011;1738;49.500;17.736;2023-01-06T01:09:05;10.30;;;2.70;;
3447;SDS011;1738;49.500;17.736;2023-01-06T01:11:30;3.67;;;2.43;;
3447;SDS011;1738;49.500;17.736;2023-01-06T01:14:02;7.00;;;2.43;;
3447;SDS011;1738;49.500;17.736;2023-01-06T01:16:28;6.20;;;2.67;;
3447;SDS011;1738;49.500;17.736;2023-01-06T01:18:53;11.63;;;4.70;;
3447;SDS011;1738;49.500;17.736;2023-01-06T01:21:19;6.10;;;3.10;;
3447;SDS011;1738;49.500;17.736;2023-01-06T01:23:45;9.50;;;5.70;;
3447;SDS011;1738;49.500;17.736;2023-01-06T01:26:12;12.80;;;2.97;;
3447;SDS011;1738;49.500;17.736;2023-01-06T01:28:37;8.00;;;3.23;;
3447;SDS011;1738;49.500;17.736;2023-01-06T01:31:03;5.43;;;3.27;;
3447;SDS011;1738;49.500;17.736;2023-01-06T01:33:29;4.60;;;3.20;;
3447;SDS011;1738;49.500;17.736;2023-01-06T01:35:54;5.20;;;3.30;;
3447;SDS011;1738;49.500;17.736;2023-01-06T01:38:20;5.63;;;3.03;;
3447;SDS011;1738;49.500;17.736;2023-01-06T01:40:47;5.03;;;2.70;;
3447;SDS011;1738;49.500;17.736;2023-01-06T01:43:12;7.63;;;2.90;;
3447;SDS011;1738;49.500;17.736;2023-01-06T01:45:38;5.40;;;2.80;;
3447;SDS011;1738;49.500;17.736;2023-01-06T01:48:04;3.80;;;2.43;;
3447;SDS011;1738;49.500;17.736;2023-01-06T01:50:31;5.33;;;3.00;;
3447;SDS011;1738;49.500;17.736;2023-01-06T01:52:58;5.12;;;3.10;;
3447;SDS011;1738;49.500;17.736;2023-01-06T01:55:21;6.70;;;3.07;;
3447;SDS011;1738;49.500;17.736;2023-01-06T01:57:49;5.43;;;3.30;;
3447;SDS011;1738;49.500;17.736;2023-01-06T02:00:14;6.40;;;4.00;;
3447;SDS011;1738;49.500;17.736;2023-01-06T02:02:40;5.93;;;3.30;;
3447;SDS011;1738;49.500;17.736;2023-01-06T02:05:06;6.47;;;3.73;;
3447;SDS011;1738;49.500;17.736;2023-01-06T02:07:32;4.60;;;2.97;;
3447;SDS011;1738;49.500;17.736;2023-01-06T02:09:59;9.30;;;3.30;;
3447;SDS011;1738;49.500;17.736;2023-01-06T02:12:23;20.47;;;13.07;;
3447;SDS011;1738;49.500;17.736;2023-01-06T02:14:49;15.37;;;10.27;;
3447;SDS011;1738;49.500;17.736;2023-01-06T02:17:21;18.37;;;10.87;;
3447;SDS011;1738;49.500;17.736;2023-01-06T02:19:56;12.23;;;5.70;;
3447;SDS011;1738;49.500;17.736;2023-01-06T02:22:28;7.73;;;3.80;;
3447;SDS011;1738;49.500;17.736;2023-01-06T02:25:25;7.20;;;3.27;;
3447;SDS011;1738;49.500;17.736;2023-01-06T02:27:34;5.03;;;2.90;;
3447;SDS011;1738;49.500;17.736;2023-01-06T02:30:02;5.50;;;4.07;;
3447;SDS011;1738;49.500;17.736;2023-01-06T02:35:05;8.13;;;3.70;;
3447;SDS011;1738;49.500;17.736;2023-01-06T02:37:34;4.70;;;3.10;;
3447;SDS011;1738;49.500;17.736;2023-01-06T02:40:04;5.20;;;2.50;;
3447;SDS011;1738;49.500;17.736;2023-01-06T02:42:38;61.83;;;25.70;;
3447;SDS011;1738;49.500;17.736;2023-01-06T02:45:07;33.67;;;14.90;;
3447;SDS011;1738;49.500;17.736;2023-01-06T02:47:38;20.23;;;10.47;;
3447;SDS011;1738;49.500;17.736;2023-01-06T02:50:05;19.47;;;7.60;;
3447;SDS011;1738;49.500;17.736;2023-01-06T02:52:33;9.53;;;5.70;;
3447;SDS011;1738;49.500;17.736;2023-01-06T02:55:05;10.37;;;5.27;;
3447;SDS011;1738;49.500;17.736;2023-01-06T02:57:40;6.90;;;3.60;;
3447;SDS011;1738;49.500;17.736;2023-01-06T03:00:10;5.73;;;3.50;;
3447;SDS011;1738;49.500;17.736;2023-01-06T03:02:35;9.33;;;3.53;;
3447;SDS011;1738;49.500;17.736;2023-01-06T03:05:01;8.67;;;4.80;;
3447;SDS011;1738;49.500;17.736;2023-01-06T03:07:26;16.33;;;6.80;;
3447;SDS011;1738;49.500;17.736;2023-01-06T03:09:52;7.70;;;4.13;;
3447;SDS011;1738;49.500;17.736;2023-01-06T03:12:23;10.87;;;4.73;;
3447;SDS011;1738;49.500;17.736;2023-01-06T03:14:46;39.47;;;16.33;;
3447;SDS011;1738;49.500;17.736;2023-01-06T03:17:10;76.03;;;30.57;;
3447;SDS011;1738;49.500;17.736;2023-01-06T03:19:36;15.63;;;7.70;;
3447;SDS011;1738;49.500;17.736;2023-01-06T03:22:02;27.70;;;11.50;;
3447;SDS011;1738;49.500;17.736;2023-01-06T03:24:28;34.23;;;12.90;;
3447;SDS011;1738;49.500;17.736;2023-01-06T03:26:54;18.48;;;10.10;;
3447;SDS011;1738;49.500;17.736;2023-01-06T03:29:20;39.20;;;15.23;;
3447;SDS011;1738;49.500;17.736;2023-01-06T03:31:56;22.50;;;10.40;;
3447;SDS011;1738;49.500;17.736;2023-01-06T03:39:34;16.70;;;6.53;;
3447;SDS011;1738;49.500;17.736;2023-01-06T03:42:01;8.43;;;4.80;;
3447;SDS011;1738;49.500;17.736;2023-01-06T03:44:33;14.13;;;5.43;;
3447;SDS011;1738;49.500;17.736;2023-01-06T03:46:59;17.00;;;7.03;;
3447;SDS011;1738;49.500;17.736;2023-01-06T03:49:27;10.93;;;6.33;;
3447;SDS011;1738;49.500;17.736;2023-01-06T03:51:53;14.43;;;7.53;;
3447;SDS011;1738;49.500;17.736;2023-01-06T03:56:50;15.10;;;5.87;;
3447;SDS011;1738;49.500;17.736;2023-01-06T03:59:17;12.80;;;6.63;;
3447;SDS011;1738;49.500;17.736;2023-01-06T04:01:41;14.57;;;5.60;;
3447;SDS011;1738;49.500;17.736;2023-01-06T04:04:07;11.03;;;6.30;;
3447;SDS011;1738;49.500;17.736;2023-01-06T04:06:33;12.30;;;5.57;;
3447;SDS011;1738;49.500;17.736;2023-01-06T04:08:59;11.80;;;5.13;;
3447;SDS011;1738;49.500;17.736;2023-01-06T04:11:25;10.30;;;5.47;;
3447;SDS011;1738;49.500;17.736;2023-01-06T04:13:56;9.27;;;5.60;;
3447;SDS011;1738;49.500;17.736;2023-01-06T04:16:22;11.87;;;5.60;;
3447;SDS011;1738;49.500;17.736;2023-01-06T04:18:48;8.85;;;5.32;;
3447;SDS011;1738;49.500;17.736;2023-01-06T04:21:14;9.10;;;4.80;;
3447;SDS011;1738;49.500;17.736;2023-01-06T04:23:40;12.10;;;5.47;;
3447;SDS011;1738;49.500;17.736;2023-01-06T04:26:05;10.70;;;5.23;;
3447;SDS011;1738;49.500;17.736;2023-01-06T04:28:31;9.07;;;5.33;;
3447;SDS011;1738;49.500;17.736;2023-01-06T04:30:58;11.07;;;6.07;;
3447;SDS011;1738;49.500;17.736;2023-01-06T04:33:23;11.57;;;8.13;;
3447;SDS011;1738;49.500;17.736;2023-01-06T04:35:49;19.37;;;8.50;;
3447;SDS011;1738;49.500;17.736;2023-01-06T04:38:15;13.13;;;7.97;;
3447;SDS011;1738;49.500;17.736;2023-01-06T04:40:41;17.07;;;7.20;;
3447;SDS011;1738;49.500;17.736;2023-01-06T04:43:06;9.27;;;5.60;;
3447;SDS011;1738;49.500;17.736;2023-01-06T04:45:33;10.40;;;6.30;;
3447;SDS011;1738;49.500;17.736;2023-01-06T04:47:58;8.40;;;4.87;;
3447;SDS011;1738;49.500;17.736;2023-01-06T04:50:24;12.57;;;6.27;;
3447;SDS011;1738;49.500;17.736;2023-01-06T04:52:50;13.60;;;6.30;;
3447;SDS011;1738;49.500;17.736;2023-01-06T04:55:16;11.88;;;7.00;;
3447;SDS011;1738;49.500;17.736;2023-01-06T04:57:41;8.87;;;6.20;;
3447;SDS011;1738;49.500;17.736;2023-01-06T05:00:08;9.13;;;5.40;;
3447;SDS011;1738;49.500;17.736;2023-01-06T05:02:33;9.17;;;5.63;;
3447;SDS011;1738;49.500;17.736;2023-01-06T05:04:59;8.57;;;5.43;;
3447;SDS011;1738;49.500;17.736;2023-01-06T05:07:25;11.90;;;7.23;;
3447;SDS011;1738;49.500;17.736;2023-01-06T05:09:51;10.30;;;6.13;;
3447;SDS011;1738;49.500;17.736;2023-01-06T05:12:17;11.68;;;6.30;;
3447;SDS011;1738;49.500;17.736;2023-01-06T05:14:43;13.90;;;6.10;;
3447;SDS011;1738;49.500;17.736;2023-01-06T05:17:09;9.47;;;5.90;;
3447;SDS011;1738;49.500;17.736;2023-01-06T05:19:34;10.43;;;7.10;;
3447;SDS011;1738;49.500;17.736;2023-01-06T05:22:00;8.80;;;6.20;;
3447;SDS011;1738;49.500;17.736;2023-01-06T05:24:26;10.60;;;7.20;;
3447;SDS011;1738;49.500;17.736;2023-01-06T05:26:52;7.93;;;5.50;;
3447;SDS011;1738;49.500;17.736;2023-01-06T05:29:18;9.07;;;5.23;;
3447;SDS011;1738;49.500;17.736;2023-01-06T05:31:44;7.37;;;4.90;;
3447;SDS011;1738;49.500;17.736;2023-01-06T05:34:10;13.83;;;7.20;;
3447;SDS011;1738;49.500;17.736;2023-01-06T05:36:35;11.80;;;7.07;;
3447;SDS011;1738;49.500;17.736;2023-01-06T05:39:01;14.97;;;6.30;;
3447;SDS011;1738;49.500;17.736;2023-01-06T05:41:27;10.90;;;5.30;;
3447;SDS011;1738;49.500;17.736;2023-01-06T05:43:53;10.65;;;5.03;;
3447;SDS011;1738;49.500;17.736;2023-01-06T05:46:19;9.50;;;5.27;;
3447;SDS011;1738;49.500;17.736;2023-01-06T05:48:44;9.30;;;5.07;;
3447;SDS011;1738;49.500;17.736;2023-01-06T05:51:11;22.13;;;15.43;;
3447;SDS011;1738;49.500;17.736;2023-01-06T05:53:37;25.50;;;13.87;;
3447;SDS011;1738;49.500;17.736;2023-01-06T05:56:02;25.60;;;14.20;;
3447;SDS011;1738;49.500;17.736;2023-01-06T05:58:28;20.80;;;13.27;;
3447;SDS011;1738;49.500;17.736;2023-01-06T06:00:54;17.20;;;11.50;;
3447;SDS011;1738;49.500;17.736;2023-01-06T06:03:20;24.02;;;13.02;;
3447;SDS011;1738;49.500;17.736;2023-01-06T06:05:46;19.93;;;13.90;;
3447;SDS011;1738;49.500;17.736;2023-01-06T06:08:11;15.57;;;10.27;;
3447;SDS011;1738;49.500;17.736;2023-01-06T06:10:37;11.07;;;7.17;;
3447;SDS011;1738;49.500;17.736;2023-01-06T06:13:03;15.13;;;8.27;;
3447;SDS011;1738;49.500;17.736;2023-01-06T06:15:29;21.20;;;11.50;;
3447;SDS011;1738;49.500;17.736;2023-01-06T06:17:55;14.68;;;9.52;;
3447;SDS011;1738;49.500;17.736;2023-01-06T06:20:21;10.07;;;6.97;;
3447;SDS011;1738;49.500;17.736;2023-01-06T06:22:46;7.20;;;4.90;;
3447;SDS011;1738;49.500;17.736;2023-01-06T06:25:12;12.10;;;7.33;;
3447;SDS011;1738;49.500;17.736;2023-01-06T06:27:38;14.90;;;9.00;;
3447;SDS011;1738;49.500;17.736;2023-01-06T06:30:05;18.23;;;9.70;;
3447;SDS011;1738;49.500;17.736;2023-01-06T06:32:30;14.93;;;9.47;;
3447;SDS011;1738;49.500;17.736;2023-01-06T06:34:57;12.33;;;9.03;;
3447;SDS011;1738;49.500;17.736;2023-01-06T06:37:22;10.33;;;8.03;;
3447;SDS011;1738;49.500;17.736;2023-01-06T06:39:48;16.03;;;9.53;;
3447;SDS011;1738;49.500;17.736;2023-01-06T06:42:14;8.43;;;5.53;;
3447;SDS011;1738;49.500;17.736;2023-01-06T06:44:40;15.33;;;4.97;;
3447;SDS011;1738;49.500;17.736;2023-01-06T06:47:06;10.80;;;4.30;;
3447;SDS011;1738;49.500;17.736;2023-01-06T06:49:31;14.40;;;5.00;;
3447;SDS011;1738;49.500;17.736;2023-01-06T06:51:57;9.95;;;5.90;;
3447;SDS011;1738;49.500;17.736;2023-01-06T06:54:23;9.23;;;5.00;;
3447;SDS011;1738;49.500;17.736;2023-01-06T06:56:49;9.43;;;5.20;;
3447;SDS011;1738;49.500;17.736;2023-01-06T06:59:15;10.40;;;5.00;;
3447;SDS011;1738;49.500;17.736;2023-01-06T07:01:41;11.70;;;6.13;;
3447;SDS011;1738;49.500;17.736;2023-01-06T07:04:07;12.00;;;5.70;;
3447;SDS011;1738;49.500;17.736;2023-01-06T07:06:32;7.90;;;5.83;;
3447;SDS011;1738;49.500;17.736;2023-01-06T07:08:58;12.30;;;5.80;;
3447;SDS011;1738;49.500;17.736;2023-01-06T07:11:24;8.47;;;5.73;;
3447;SDS011;1738;49.500;17.736;2023-01-06T07:13:50;10.10;;;5.90;;
3447;SDS011;1738;49.500;17.736;2023-01-06T07:16:16;10.10;;;5.93;;
3447;SDS011;1738;49.500;17.736;2023-01-06T07:18:41;8.83;;;4.87;;
3447;SDS011;1738;49.500;17.736;2023-01-06T07:21:07;6.73;;;4.90;;
3447;SDS011;1738;49.500;17.736;2023-01-06T07:23:33;10.90;;;6.13;;
3447;SDS011;1738;49.500;17.736;2023-01-06T07:25:59;10.40;;;6.20;;
3447;SDS011;1738;49.500;17.736;2023-01-06T07:28:26;11.67;;;6.20;;
3447;SDS011;1738;49.500;17.736;2023-01-06T07:30:51;8.20;;;5.30;;
3447;SDS011;1738;49.500;17.736;2023-01-06T07:33:18;9.57;;;7.50;;
3447;SDS011;1738;49.500;17.736;2023-01-06T07:35:45;12.57;;;8.00;;
3447;SDS011;1738;49.500;17.736;2023-01-06T07:38:13;11.93;;;6.97;;
3447;SDS011;1738;49.500;17.736;2023-01-06T07:40:39;11.60;;;6.50;;
3447;SDS011;1738;49.500;17.736;2023-01-06T07:43:06;11.60;;;7.20;;
3447;SDS011;1738;49.500;17.736;2023-01-06T07:45:31;9.83;;;6.17;;
3447;SDS011;1738;49.500;17.736;2023-01-06T07:47:57;10.93;;;6.93;;
3447;SDS011;1738;49.500;17.736;2023-01-06T07:50:23;10.07;;;6.73;;
3447;SDS011;1738;49.500;17.736;2023-01-06T07:52:49;13.50;;;9.10;;
3447;SDS011;1738;49.500;17.736;2023-01-06T07:55:15;12.63;;;8.63;;
3447;SDS011;1738;49.500;17.736;2023-01-06T07:57:41;11.30;;;8.33;;
3447;SDS011;1738;49.500;17.736;2023-01-06T08:00:07;18.33;;;9.23;;
3447;SDS011;1738;49.500;17.736;2023-01-06T08:02:33;19.53;;;8.40;;
3447;SDS011;1738;49.500;17.736;2023-01-06T08:04:59;12.13;;;6.30;;
3447;SDS011;1738;49.500;17.736;2023-01-06T08:07:25;17.47;;;11.80;;
3447;SDS011;1738;49.500;17.736;2023-01-06T08:09:50;19.43;;;13.10;;
3447;SDS011;1738;49.500;17.736;2023-01-06T08:12:16;24.93;;;14.90;;
3447;SDS011;1738;49.500;17.736;2023-01-06T08:14:42;13.73;;;9.07;;
3447;SDS011;1738;49.500;17.736;2023-01-06T08:17:08;11.70;;;8.53;;
3447;SDS011;1738;49.500;17.736;2023-01-06T08:19:34;12.50;;;8.20;;
3447;SDS011;1738;49.500;17.736;2023-01-06T08:22:00;14.40;;;9.50;;
3447;SDS011;1738;49.500;17.736;2023-01-06T08:24:26;12.53;;;7.27;;
3447;SDS011;1738;49.500;17.736;2023-01-06T08:26:52;15.00;;;8.50;;
3447;SDS011;1738;49.500;17.736;2023-01-06T08:29:17;11.27;;;7.80;;
3447;SDS011;1738;49.500;17.736;2023-01-06T08:31:43;13.93;;;8.88;;
3447;SDS011;1738;49.500;17.736;2023-01-06T08:34:09;12.93;;;7.10;;
3447;SDS011;1738;49.500;17.736;2023-01-06T08:36:35;9.17;;;6.57;;
3447;SDS011;1738;49.500;17.736;2023-01-06T08:39:01;12.25;;;7.80;;
3447;SDS011;1738;49.500;17.736;2023-01-06T08:41:27;12.87;;;8.80;;
3447;SDS011;1738;49.500;17.736;2023-01-06T08:43:53;15.20;;;9.70;;
3447;SDS011;1738;49.500;17.736;2023-01-06T08:46:19;13.00;;;8.73;;
3447;SDS011;1738;49.500;17.736;2023-01-06T08:48:45;12.40;;;8.50;;
3447;SDS011;1738;49.500;17.736;2023-01-06T08:51:12;13.88;;;10.38;;
3447;SDS011;1738;49.500;17.736;2023-01-06T08:53:37;16.20;;;9.90;;
3447;SDS011;1738;49.500;17.736;2023-01-06T08:56:03;15.20;;;9.37;;
3447;SDS011;1738;49.500;17.736;2023-01-06T08:58:29;16.57;;;9.80;;
3447;SDS011;1738;49.500;17.736;2023-01-06T09:00:55;12.77;;;9.50;;
3447;SDS011;1738;49.500;17.736;2023-01-06T09:03:20;13.90;;;10.07;;
3447;SDS011;1738;49.500;17.736;2023-01-06T09:05:51;13.00;;;9.87;;
3447;SDS011;1738;49.500;17.736;2023-01-06T09:08:16;14.23;;;8.73;;
3447;SDS011;1738;49.500;17.736;2023-01-06T09:10:42;19.73;;;8.20;;
3447;SDS011;1738;49.500;17.736;2023-01-06T09:13:08;13.60;;;9.60;;
3447;SDS011;1738;49.500;17.736;2023-01-06T09:15:33;11.50;;;8.03;;
3447;SDS011;1738;49.500;17.736;2023-01-06T09:17:59;13.40;;;8.73;;
3447;SDS011;1738;49.500;17.736;2023-01-06T09:20:25;12.60;;;8.60;;
3447;SDS011;1738;49.500;17.736;2023-01-06T09:22:51;12.00;;;9.00;;
3447;SDS011;1738;49.500;17.736;2023-01-06T09:25:17;15.43;;;7.63;;
3447;SDS011;1738;49.500;17.736;2023-01-06T09:27:43;12.65;;;8.85;;
3447;SDS011;1738;49.500;17.736;2023-01-06T09:30:09;13.80;;;8.90;;
3447;SDS011;1738;49.500;17.736;2023-01-06T09:32:35;24.43;;;11.67;;
3447;SDS011;1738;49.500;17.736;2023-01-06T09:35:01;20.30;;;11.33;;
3447;SDS011;1738;49.500;17.736;2023-01-06T09:37:26;18.95;;;9.60;;
3447;SDS011;1738;49.500;17.736;2023-01-06T09:39:52;19.97;;;10.10;;
3447;SDS011;1738;49.500;17.736;2023-01-06T09:42:26;15.20;;;8.93;;
3447;SDS011;1738;49.500;17.736;2023-01-06T09:44:55;20.27;;;10.53;;
3447;SDS011;1738;49.500;17.736;2023-01-06T09:47:21;12.77;;;7.33;;
3447;SDS011;1738;49.500;17.736;2023-01-06T09:49:48;15.43;;;8.57;;
3447;SDS011;1738;49.500;17.736;2023-01-06T09:52:32;47.07;;;15.80;;
3447;SDS011;1738;49.500;17.736;2023-01-06T09:55:02;29.90;;;11.47;;
3447;SDS011;1738;49.500;17.736;2023-01-06T09:57:29;26.90;;;10.53;;
3447;SDS011;1738;49.500;17.736;2023-01-06T09:59:55;16.83;;;8.40;;
3447;SDS011;1738;49.500;17.736;2023-01-06T10:02:21;16.77;;;8.80;;
3447;SDS011;1738;49.500;17.736;2023-01-06T10:04:46;15.40;;;7.30;;
3447;SDS011;1738;49.500;17.736;2023-01-06T10:07:13;13.70;;;8.20;;
3447;SDS011;1738;49.500;17.736;2023-01-06T10:09:41;22.23;;;8.20;;
3447;SDS011;1738;49.500;17.736;2023-01-06T10:12:13;14.23;;;8.23;;
3447;SDS011;1738;49.500;17.736;2023-01-06T10:14:40;13.60;;;8.07;;
3447;SDS011;1738;49.500;17.736;2023-01-06T10:17:17;14.57;;;8.03;;
3447;SDS011;1738;49.500;17.736;2023-01-06T10:19:53;13.63;;;8.03;;
3447;SDS011;1738;49.500;17.736;2023-01-06T10:24:51;12.90;;;7.60;;
3447;SDS011;1738;49.500;17.736;2023-01-06T10:27:20;15.93;;;8.20;;
3447;SDS011;1738;49.500;17.736;2023-01-06T10:29:44;12.13;;;8.07;;
3447;SDS011;1738;49.500;17.736;2023-01-06T10:32:12;12.00;;;6.40;;
3447;SDS011;1738;49.500;17.736;2023-01-06T10:34:35;12.95;;;5.72;;
3447;SDS011;1738;49.500;17.736;2023-01-06T10:37:04;14.13;;;5.60;;
3447;SDS011;1738;49.500;17.736;2023-01-06T10:39:28;12.37;;;6.28;;
3447;SDS011;1738;49.500;17.736;2023-01-06T10:41:57;9.17;;;6.00;;
3447;SDS011;1738;49.500;17.736;2023-01-06T10:44:20;10.15;;;5.70;;
3447;SDS011;1738;49.500;17.736;2023-01-06T10:46:46;10.00;;;6.60;;
3447;SDS011;1738;49.500;17.736;2023-01-06T10:49:13;9.23;;;6.50;;
3447;SDS011;1738;49.500;17.736;2023-01-06T10:51:39;9.00;;;7.07;;
3447;SDS011;1738;49.500;17.736;2023-01-06T10:54:06;8.63;;;6.30;;
3447;SDS011;1738;49.500;17.736;2023-01-06T10:56:30;8.77;;;5.93;;
3447;SDS011;1738;49.500;17.736;2023-01-06T10:58:57;12.17;;;6.37;;
3447;SDS011;1738;49.500;17.736;2023-01-06T11:01:23;13.43;;;6.85;;
3447;SDS011;1738;49.500;17.736;2023-01-06T11:04:02;8.93;;;6.40;;
3447;SDS011;1738;49.500;17.736;2023-01-06T11:06:14;9.83;;;6.47;;
3447;SDS011;1738;49.500;17.736;2023-01-06T11:08:39;10.37;;;6.70;;
3447;SDS011;1738;49.500;17.736;2023-01-06T11:11:10;9.55;;;6.22;;
3447;SDS011;1738;49.500;17.736;2023-01-06T11:13:34;12.97;;;6.77;;
3447;SDS011;1738;49.500;17.736;2023-01-06T11:16:01;6.93;;;4.73;;
3447;SDS011;1738;49.500;17.736;2023-01-06T11:18:27;11.10;;;5.60;;
3447;SDS011;1738;49.500;17.736;2023-01-06T11:21:10;11.33;;;6.23;;
3447;SDS011;1738;49.500;17.736;2023-01-06T11:23:35;8.70;;;6.10;;
3447;SDS011;1738;49.500;17.736;2023-01-06T11:26:03;7.83;;;4.67;;
3447;SDS011;1738;49.500;17.736;2023-01-06T11:28:27;7.77;;;4.77;;
3447;SDS011;1738;49.500;17.736;2023-01-06T11:30:54;9.30;;;3.60;;
3447;SDS011;1738;49.500;17.736;2023-01-06T11:33:20;7.30;;;4.10;;
3447;SDS011;1738;49.500;17.736;2023-01-06T11:35:45;7.63;;;3.43;;
3447;SDS011;1738;49.500;17.736;2023-01-06T11:38:12;4.43;;;3.33;;
3447;SDS011;1738;49.500;17.736;2023-01-06T11:40:37;8.80;;;3.13;;
3447;SDS011;1738;49.500;17.736;2023-01-06T11:43:07;7.03;;;3.20;;
3447;SDS011;1738;49.500;17.736;2023-01-06T11:45:32;6.93;;;3.10;;
3447;SDS011;1738;49.500;17.736;2023-01-06T11:47:57;6.40;;;2.80;;
3447;SDS011;1738;49.500;17.736;2023-01-06T11:50:23;4.77;;;2.87;;
3447;SDS011;1738;49.500;17.736;2023-01-06T11:55:20;6.10;;;2.90;;
3447;SDS011;1738;49.500;17.736;2023-01-06T11:57:52;5.80;;;2.55;;
3447;SDS011;1738;49.500;17.736;2023-01-06T12:00:23;7.03;;;2.50;;
3447;SDS011;1738;49.500;17.736;2023-01-06T12:02:48;5.50;;;2.63;;
3447;SDS011;1738;49.500;17.736;2023-01-06T12:05:15;4.47;;;3.43;;
3447;SDS011;1738;49.500;17.736;2023-01-06T12:07:42;4.30;;;2.50;;
3447;SDS011;1738;49.500;17.736;2023-01-06T12:10:10;4.00;;;2.60;;
3447;SDS011;1738;49.500;17.736;2023-01-06T12:12:34;3.30;;;2.30;;
3447;SDS011;1738;49.500;17.736;2023-01-06T12:15:00;6.15;;;2.70;;
3447;SDS011;1738;49.500;17.736;2023-01-06T12:20:10;4.77;;;3.03;;
3447;SDS011;1738;49.500;17.736;2023-01-06T12:22:37;4.50;;;3.00;;
3447;SDS011;1738;49.500;17.736;2023-01-06T12:25:02;5.27;;;3.23;;
3447;SDS011;1738;49.500;17.736;2023-01-06T12:27:33;9.13;;;2.93;;
3447;SDS011;1738;49.500;17.736;2023-01-06T12:29:57;6.40;;;3.43;;
3447;SDS011;1738;49.500;17.736;2023-01-06T12:32:22;4.73;;;2.73;;
3447;SDS011;1738;49.500;17.736;2023-01-06T12:34:48;5.17;;;3.00;;
3447;SDS011;1738;49.500;17.736;2023-01-06T12:37:19;6.70;;;3.47;;
3447;SDS011;1738;49.500;17.736;2023-01-06T12:39:45;5.40;;;3.10;;
3447;SDS011;1738;49.500;17.736;2023-01-06T12:42:14;4.30;;;2.53;;
3447;SDS011;1738;49.500;17.736;2023-01-06T12:44:42;4.07;;;2.80;;
3447;SDS011;1738;49.500;17.736;2023-01-06T12:47:14;5.13;;;2.27;;
3447;SDS011;1738;49.500;17.736;2023-01-06T12:49:43;5.50;;;2.57;;
3447;SDS011;1738;49.500;17.736;2023-01-06T12:52:10;4.30;;;2.43;;
3447;SDS011;1738;49.500;17.736;2023-01-06T12:54:34;8.30;;;3.15;;
3447;SDS011;1738;49.500;17.736;2023-01-06T12:57:04;3.40;;;1.87;;
3447;SDS011;1738;49.500;17.736;2023-01-06T13:02:13;4.83;;;2.10;;
3447;SDS011;1738;49.500;17.736;2023-01-06T13:07:10;4.53;;;2.80;;
3447;SDS011;1738;49.500;17.736;2023-01-06T13:09:39;7.73;;;3.50;;
3447;SDS011;1738;49.500;17.736;2023-01-06T13:12:10;4.67;;;3.17;;
3447;SDS011;1738;49.500;17.736;2023-01-06T13:14:40;8.47;;;3.97;;
3447;SDS011;1738;49.500;17.736;2023-01-06T13:17:07;6.77;;;3.30;;
3447;SDS011;1738;49.500;17.736;2023-01-06T13:22:13;7.37;;;3.63;;
3447;SDS011;1738;49.500;17.736;2023-01-06T13:24:41;8.80;;;3.80;;
3447;SDS011;1738;49.500;17.736;2023-01-06T13:29:53;6.50;;;3.10;;
3447;SDS011;1738;49.500;17.736;2023-01-06T13:35:10;9.80;;;3.70;;
3447;SDS011;1738;49.500;17.736;2023-01-06T13:37:34;10.15;;;3.80;;
3447;SDS011;1738;49.500;17.736;2023-01-06T13:40:05;9.17;;;4.13;;
3447;SDS011;1738;49.500;17.736;2023-01-06T13:43:01;9.73;;;5.20;;
3447;SDS011;1738;49.500;17.736;2023-01-06T13:45:12;12.03;;;5.20;;
3447;SDS011;1738;49.500;17.736;2023-01-06T13:47:35;10.17;;;4.60;;
3447;SDS011;1738;49.500;17.736;2023-01-06T13:50:01;10.38;;;5.25;;
3447;SDS011;1738;49.500;17.736;2023-01-06T13:52:28;11.40;;;4.63;;
3447;SDS011;1738;49.500;17.736;2023-01-06T13:54:56;10.50;;;4.87;;
3447;SDS011;1738;49.500;17.736;2023-01-06T13:57:35;10.10;;;5.37;;
3447;SDS011;1738;49.500;17.736;2023-01-06T14:00:15;7.23;;;4.10;;
3447;SDS011;1738;49.500;17.736;2023-01-06T14:08:02;11.33;;;4.90;;
3447;SDS011;1738;49.500;17.736;2023-01-06T14:10:31;11.23;;;4.90;;
3447;SDS011;1738;49.500;17.736;2023-01-06T14:12:55;16.80;;;5.20;;
3447;SDS011;1738;49.500;17.736;2023-01-06T14:15:22;9.47;;;4.90;;
3447;SDS011;1738;49.500;17.736;2023-01-06T14:17:46;10.10;;;4.53;;
3447;SDS011;1738;49.500;17.736;2023-01-06T14:20:19;8.30;;;4.70;;
3447;SDS011;1738;49.500;17.736;2023-01-06T14:22:42;11.87;;;5.80;;
3447;SDS011;1738;49.500;17.736;2023-01-06T14:25:18;8.50;;;5.57;;
3447;SDS011;1738;49.500;17.736;2023-01-06T14:35:21;8.17;;;5.80;;
3447;SDS011;1738;49.500;17.736;2023-01-06T14:37:47;15.87;;;7.30;;
3447;SDS011;1738;49.500;17.736;2023-01-06T14:40:23;11.77;;;5.68;;
3447;SDS011;1738;49.500;17.736;2023-01-06T14:42:50;11.30;;;6.87;;
3447;SDS011;1738;49.500;17.736;2023-01-06T14:45:17;19.13;;;9.27;;
3447;SDS011;1738;49.500;17.736;2023-01-06T14:47:44;9.10;;;5.80;;
3447;SDS011;1738;49.500;17.736;2023-01-06T14:50:15;8.30;;;4.97;;
3447;SDS011;1738;49.500;17.736;2023-01-06T14:52:41;9.20;;;5.87;;
3447;SDS011;1738;49.500;17.736;2023-01-06T14:55:08;12.20;;;5.20;;
3447;SDS011;1738;49.500;17.736;2023-01-06T14:57:34;7.50;;;4.60;;
3447;SDS011;1738;49.500;17.736;2023-01-06T15:02:30;10.67;;;5.63;;
3447;SDS011;1738;49.500;17.736;2023-01-06T15:04:56;8.70;;;4.30;;
3447;SDS011;1738;49.500;17.736;2023-01-06T15:07:22;15.10;;;5.80;;
3447;SDS011;1738;49.500;17.736;2023-01-06T15:09:48;13.60;;;5.67;;
3447;SDS011;1738;49.500;17.736;2023-01-06T15:14:45;19.33;;;9.63;;
3447;SDS011;1738;49.500;17.736;2023-01-06T15:17:11;18.00;;;9.63;;
3447;SDS011;1738;49.500;17.736;2023-01-06T15:19:40;9.80;;;6.40;;
3447;SDS011;1738;49.500;17.736;2023-01-06T15:22:05;12.20;;;6.20;;
3447;SDS011;1738;49.500;17.736;2023-01-06T15:24:29;7.70;;;5.00;;
3447;SDS011;1738;49.500;17.736;2023-01-06T15:27:02;12.70;;;6.30;;
3447;SDS011;1738;49.500;17.736;2023-01-06T15:29:23;9.43;;;5.03;;
3447;SDS011;1738;49.500;17.736;2023-01-06T15:31:49;10.85;;;5.87;;
3447;SDS011;1738;49.500;17.736;2023-01-06T15:34:20;14.53;;;6.93;;
3447;SDS011;1738;49.500;17.736;2023-01-06T15:36:45;20.20;;;7.37;;
3447;SDS011;1738;49.500;17.736;2023-01-06T15:39:12;15.27;;;6.53;;